createdAt,value
2022-09-12T00:04:06.125Z,81.65
2022-09-12T00:09:13.808Z,81.76
2022-09-12T00:14:20.829Z,81.85
2022-09-12T00:19:27.413Z,82.09
2022-09-12T00:24:34.234Z,82.12
2022-09-12T00:29:41.065Z,81.96
2022-09-12T00:34:48.161Z,82.18
2022-09-12T00:39:54.792Z,82.38
2022-09-12T00:45:00.850Z,82.44
2022-09-12T00:50:11.330Z,82.61
2022-09-12T00:55:19.594Z,82.55
2022-09-12T01:00:27.542Z,82.66
2022-09-12T01:05:36.986Z,82.89
2022-09-12T01:10:44.691Z,82.91
2022-09-12T01:15:50.810Z,82.88
2022-09-12T01:21:09.147Z,83.00
2022-09-12T01:26:38.672Z,82.90
2022-09-12T01:31:53.018Z,82.86
2022-09-12T01:37:10.848Z,83.01
2022-09-12T01:42:22.457Z,83.07
2022-09-12T01:47:39.661Z,83.15
2022-09-12T01:52:49.467Z,83.15
2022-09-12T01:57:59.721Z,82.97
2022-09-12T02:03:12.503Z,83.06
2022-09-12T02:08:22.369Z,83.28
2022-09-12T02:13:34.713Z,83.22
2022-09-12T02:18:44.836Z,83.33
2022-09-12T02:23:55.630Z,83.44
2022-09-12T02:29:03.890Z,83.62
2022-09-12T02:34:22.358Z,83.76
2022-09-12T02:39:28.522Z,83.83
2022-09-12T02:44:36.475Z,84.10
2022-09-12T02:49:42.523Z,84.17
2022-09-12T02:54:50.239Z,84.06
2022-09-12T03:00:01.052Z,84.22
2022-09-12T03:05:26.699Z,84.19
2022-09-12T03:10:41.657Z,84.19
2022-09-12T03:15:55.937Z,84.08
2022-09-12T03:21:08.509Z,84.29
2022-09-12T03:26:20.344Z,84.18
2022-09-12T03:31:26.966Z,84.33
2022-09-12T03:36:33.177Z,84.53
2022-09-12T03:41:39.245Z,84.72
2022-09-12T03:46:46.050Z,84.99
2022-09-12T03:51:52.553Z,85.19
2022-09-12T03:56:58.450Z,85.65
2022-09-12T04:02:04.913Z,86.10
2022-09-12T04:07:11.309Z,86.28
2022-09-12T04:12:17.831Z,86.50
2022-09-12T04:17:24.349Z,86.68
2022-09-12T04:22:32.130Z,86.91
2022-09-12T04:27:38.423Z,87.30
2022-09-12T04:32:44.650Z,87.53
2022-09-12T04:37:51.131Z,87.60
2022-09-12T04:42:57.128Z,87.89
2022-09-12T04:48:03.877Z,88.03
2022-09-12T04:53:10.251Z,88.15
2022-09-12T04:58:16.322Z,88.28
2022-09-12T05:03:22.343Z,88.68
2022-09-12T05:08:28.668Z,88.81
2022-09-12T05:13:35.214Z,88.83
2022-09-12T05:18:41.724Z,88.88
2022-09-12T05:23:50.523Z,89.24
2022-09-12T05:28:57.181Z,89.27
2022-09-12T05:34:09.084Z,89.38
2022-09-12T05:39:15.369Z,89.60
2022-09-12T05:44:21.257Z,89.79
2022-09-12T05:49:27.954Z,89.86
2022-09-12T05:54:34.545Z,90.09
2022-09-12T05:59:40.794Z,90.13
2022-09-12T06:04:47.286Z,90.23
2022-09-12T06:09:53.826Z,90.31
2022-09-12T06:14:59.699Z,90.54
2022-09-12T06:20:06.974Z,90.38
2022-09-12T06:25:13.019Z,90.19
2022-09-12T06:30:25.319Z,90.05
2022-09-12T06:35:31.844Z,89.52
2022-09-12T06:40:46.545Z,89.50
2022-09-12T06:45:52.883Z,89.27
2022-09-12T06:51:00.355Z,88.89
2022-09-12T06:56:11.426Z,88.63
2022-09-12T07:01:19.048Z,88.84
2022-09-12T07:06:32.525Z,88.68
2022-09-12T07:11:41.033Z,88.27
2022-09-12T07:16:47.684Z,87.81
2022-09-12T07:21:58.036Z,87.80
2022-09-12T07:27:04.773Z,87.93
2022-09-12T07:32:12.151Z,87.43
2022-09-12T07:37:18.466Z,87.43
2022-09-12T07:42:24.870Z,87.74
2022-09-12T07:47:31.339Z,87.32
2022-09-12T07:52:37.709Z,86.65
2022-09-12T07:57:44.125Z,86.25
2022-09-12T08:02:54.147Z,85.82
2022-09-12T08:08:01.074Z,85.63
2022-09-12T08:13:10.725Z,84.96
2022-09-12T08:18:17.433Z,84.35
2022-09-12T08:23:25.049Z,83.84
2022-09-12T08:28:32.593Z,83.23
2022-09-12T08:33:38.718Z,83.28
2022-09-12T08:38:46.242Z,83.03
2022-09-12T08:44:04.435Z,82.65
2022-09-12T08:49:14.157Z,82.42
2022-09-12T08:54:24.976Z,81.80
2022-09-12T08:59:35.754Z,81.77
2022-09-12T09:04:51.001Z,81.75
2022-09-12T09:10:08.137Z,81.55
2022-09-12T09:15:28.778Z,81.84
2022-09-12T09:20:41.244Z,81.34
2022-09-12T09:25:55.165Z,80.99
2022-09-12T09:31:02.108Z,81.25
2022-09-12T09:36:20.309Z,81.21
2022-09-12T09:41:37.329Z,80.56
2022-09-12T09:46:43.751Z,79.63
2022-09-12T09:51:50.972Z,79.29
2022-09-12T09:56:57.887Z,79.53
2022-09-12T10:02:23.872Z,80.00
2022-09-12T10:07:31.195Z,79.48
2022-09-12T10:12:37.348Z,79.40
2022-09-12T10:17:46.503Z,79.31
2022-09-12T10:22:54.006Z,79.44
2022-09-12T10:28:02.837Z,79.43
2022-09-12T10:33:12.955Z,79.73
2022-09-12T10:38:26.594Z,79.25
2022-09-12T10:43:37.690Z,77.95
2022-09-12T10:48:46.436Z,77.51
2022-09-12T10:53:56.319Z,76.39
2022-09-12T10:59:19.402Z,75.74
2022-09-12T11:04:48.459Z,75.95
2022-09-12T11:10:00.001Z,76.29
2022-09-12T11:15:26.648Z,76.93
2022-09-12T11:20:51.617Z,76.88
2022-09-12T11:26:04.309Z,75.75
2022-09-12T11:31:37.419Z,76.12
2022-09-12T11:36:55.562Z,76.84
2022-09-12T11:42:05.555Z,77.26
2022-09-12T11:47:14.906Z,77.51
2022-09-12T11:52:23.786Z,77.99
2022-09-12T11:57:36.293Z,78.05
2022-09-12T12:02:55.661Z,77.42
2022-09-12T12:08:05.869Z,76.85
2022-09-12T12:13:21.230Z,76.67
2022-09-12T12:18:29.512Z,76.74
2022-09-12T12:23:37.592Z,77.10
2022-09-12T12:29:01.333Z,76.98
2022-09-12T12:34:27.564Z,76.84
2022-09-12T12:39:55.852Z,76.43
2022-09-12T12:45:03.782Z,76.18
2022-09-12T12:50:23.855Z,75.47
2022-09-12T12:55:36.283Z,74.84
2022-09-12T13:00:42.335Z,74.35
2022-09-12T13:05:51.488Z,74.60
2022-09-12T13:11:01.105Z,74.10
2022-09-12T13:16:09.588Z,73.84
2022-09-12T13:21:17.522Z,73.35
2022-09-12T13:26:25.902Z,72.87
2022-09-12T13:31:31.846Z,72.12
2022-09-12T13:36:57.764Z,71.38
2022-09-12T13:42:37.373Z,70.72
2022-09-12T13:47:45.264Z,70.62
2022-09-12T13:52:55.135Z,71.02
2022-09-12T13:58:04.011Z,70.89
2022-09-12T14:03:46.895Z,71.04
2022-09-12T14:08:55.078Z,71.10
2022-09-12T14:14:06.486Z,71.10
2022-09-12T14:19:16.283Z,70.95
2022-09-12T14:24:24.047Z,70.76
2022-09-12T14:29:30.320Z,70.89
2022-09-12T14:34:36.440Z,70.82
2022-09-12T14:39:45.010Z,71.35
2022-09-12T14:44:58.345Z,71.83
2022-09-12T14:50:08.263Z,72.03
2022-09-12T14:55:31.528Z,72.16
2022-09-12T15:00:37.899Z,72.50
2022-09-12T15:05:51.962Z,73.10
2022-09-12T15:10:58.717Z,73.41
2022-09-12T15:16:09.562Z,73.81
2022-09-12T15:21:19.807Z,73.79
2022-09-12T15:26:30.533Z,73.81
2022-09-12T15:31:36.449Z,74.19
2022-09-12T15:36:42.765Z,74.61
2022-09-12T15:41:49.449Z,74.94
2022-09-12T15:46:55.615Z,75.32
2022-09-12T15:52:02.961Z,75.99
2022-09-12T15:57:09.606Z,76.12
2022-09-12T16:02:15.615Z,77.01
2022-09-12T16:07:21.581Z,76.80
2022-09-12T16:12:27.551Z,76.75
2022-09-12T16:17:33.779Z,77.09
2022-09-12T16:22:39.916Z,77.30
2022-09-12T16:27:46.329Z,77.22
2022-09-12T16:32:53.585Z,77.35
2022-09-12T16:38:00.966Z,77.42
2022-09-12T16:43:07.094Z,77.78
2022-09-12T16:48:12.951Z,78.99
2022-09-12T16:53:19.359Z,80.01
2022-09-12T16:58:25.441Z,81.15
2022-09-12T17:03:31.730Z,81.66
2022-09-12T17:08:40.124Z,82.22
2022-09-12T17:14:07.859Z,82.72
2022-09-12T17:19:20.418Z,83.37
2022-09-12T17:24:26.941Z,83.49
2022-09-12T17:29:34.461Z,83.78
2022-09-12T17:34:40.490Z,84.48
2022-09-12T17:39:47.996Z,84.92
2022-09-12T17:44:54.921Z,85.30
2022-09-12T17:50:27.467Z,85.34
2022-09-12T17:55:27.596Z,85.59
2022-09-12T18:00:53.087Z,85.93
2022-09-12T18:05:59.310Z,86.08
2022-09-12T18:11:07.349Z,86.30
2022-09-12T18:16:14.833Z,86.38
2022-09-12T18:21:21.035Z,86.78
2022-09-12T18:26:27.830Z,87.03
2022-09-12T18:31:34.281Z,87.17
2022-09-12T18:36:40.736Z,87.01
2022-09-12T18:41:46.815Z,87.14
2022-09-12T18:46:52.976Z,87.45
2022-09-12T18:51:59.277Z,87.84
2022-09-12T18:57:05.970Z,88.22
2022-09-12T19:02:15.534Z,88.64
2022-09-12T19:07:21.562Z,88.96
2022-09-12T19:12:27.889Z,89.17
2022-09-12T19:17:33.941Z,89.24
2022-09-12T19:22:39.783Z,89.44
2022-09-12T19:27:45.910Z,89.57
2022-09-12T19:32:52.385Z,89.58
2022-09-12T19:37:58.489Z,89.03
2022-09-12T19:43:04.393Z,88.35
2022-09-12T19:48:10.795Z,87.95
2022-09-12T19:53:17.250Z,87.60
2022-09-12T19:58:23.327Z,87.30
2022-09-12T20:03:29.110Z,87.33
2022-09-12T20:08:35.708Z,87.60
2022-09-12T20:13:41.653Z,87.39
2022-09-12T20:18:49.370Z,87.13
2022-09-12T20:23:55.555Z,87.25
2022-09-12T20:29:02.091Z,87.77
2022-09-12T20:34:13.647Z,87.14
2022-09-12T20:39:22.142Z,87.27
2022-09-12T20:44:30.220Z,87.31
2022-09-12T20:49:36.604Z,87.54
2022-09-12T20:54:42.656Z,87.72
2022-09-12T20:59:48.774Z,88.04
2022-09-12T21:04:54.857Z,88.45
2022-09-12T21:10:00.871Z,88.41
2022-09-12T21:15:08.891Z,88.49
2022-09-12T21:20:15.256Z,89.18
2022-09-12T21:25:21.135Z,88.99
2022-09-12T21:30:27.707Z,88.24
2022-09-12T21:35:35.972Z,88.43
2022-09-12T21:40:43.664Z,88.57
2022-09-12T21:45:56.638Z,89.35
2022-09-12T21:51:03.465Z,90.46
2022-09-12T21:56:09.954Z,91.69
2022-09-12T22:01:15.811Z,92.12
2022-09-12T22:06:22.637Z,92.83
2022-09-12T22:11:29.366Z,93.21
2022-09-12T22:16:35.503Z,93.40
2022-09-12T22:22:01.388Z,92.96
2022-09-12T22:27:08.553Z,92.23
2022-09-12T22:32:15.198Z,91.57
2022-09-12T22:37:21.297Z,91.38
2022-09-12T22:42:29.793Z,90.63
2022-09-12T22:47:36.244Z,90.17
2022-09-12T22:52:43.458Z,90.69
2022-09-12T22:57:49.551Z,90.71
2022-09-12T23:02:55.883Z,90.77
2022-09-12T23:08:02.227Z,90.90
2022-09-12T23:13:08.697Z,91.11
2022-09-12T23:18:14.974Z,90.94
2022-09-12T23:23:21.036Z,90.99
2022-09-12T23:28:27.166Z,90.43
2022-09-12T23:33:33.761Z,90.46
2022-09-12T23:38:40.411Z,90.34
2022-09-12T23:43:48.577Z,90.40
2022-09-12T23:48:54.620Z,90.96
2022-09-12T23:54:01.554Z,91.38
2022-09-12T23:59:07.981Z,91.63
